Time;durP1;ratioP1;P1;durP2;ratioP2;P2;SDS_P1;SDS_P2;PMS_P1;PMS_P2;Temp;Humidity;BMP_temperature;BMP_pressure;BME280_temperature;BME280_humidity;BME280_pressure;Samples;Min_cycle;Max_cycle;Signal;HPM_P1;HPM_P2
2021/05/07 00:00:11;;;;;;;1.10;0.80;;;;;;;;;;5035415;28;20184;-71
2021/05/07 00:03:15;;;;;;;2.40;0.83;;;;;;;;;;5035419;28;20185;-71
2021/05/07 00:06:19;;;;;;;2.50;0.80;;;;;;;;;;5035357;28;20181;-71
2021/05/07 00:09:23;;;;;;;0.87;0.77;;;;;;;;;;5034730;28;20181;-71
2021/05/07 00:12:27;;;;;;;2.53;1.10;;;;;;;;;;5034886;28;20691;-71
2021/05/07 00:15:31;;;;;;;2.50;0.97;;;;;;;;;;5034884;28;20185;-71
2021/05/07 00:18:37;;;;;;;1.80;0.90;;;;;;;;;;5034739;28;20200;-71
2021/05/07 00:21:41;;;;;;;2.93;1.00;;;;;;;;;;5034603;28;20221;-71
2021/05/07 00:24:45;;;;;;;2.50;0.90;;;;;;;;;;5034461;28;20181;-71
2021/05/07 00:28:04;;;;;;;3.27;1.10;;;;;;;;;;5033285;28;20181;-71
2021/05/07 00:31:08;;;;;;;2.77;1.10;;;;;;;;;;5034710;28;20355;-71
2021/05/07 00:34:12;;;;;;;6.67;1.37;;;;;;;;;;5033954;28;20181;-71
2021/05/07 00:37:17;;;;;;;3.00;1.10;;;;;;;;;;5033600;28;20205;-71
2021/05/07 00:40:21;;;;;;;4.03;1.07;;;;;;;;;;5034317;28;20185;-71
2021/05/07 00:43:33;;;;;;;3.07;1.10;;;;;;;;;;5034553;28;20197;-71
2021/05/07 00:46:38;;;;;;;2.43;1.03;;;;;;;;;;5034208;28;20184;-71
2021/05/07 00:49:42;;;;;;;2.20;0.97;;;;;;;;;;5033461;28;20177;-71
2021/05/07 00:52:55;;;;;;;1.97;1.00;;;;;;;;;;5033686;28;20189;-71
2021/05/07 00:55:59;;;;;;;2.97;1.27;;;;;;;;;;5034453;28;20181;-71
2021/05/07 00:59:03;;;;;;;1.87;0.80;;;;;;;;;;5033503;28;20201;-71
2021/05/07 01:02:07;;;;;;;3.47;1.07;;;;;;;;;;5032952;28;20228;-71
2021/05/07 01:05:13;;;;;;;3.83;1.10;;;;;;;;;;5033714;28;20177;-71
2021/05/07 01:08:18;;;;;;;1.93;1.03;;;;;;;;;;5034192;28;20192;-71
2021/05/07 01:11:27;;;;;;;1.87;1.10;;;;;;;;;;5032878;28;20655;-71
2021/05/07 01:14:31;;;;;;;1.57;1.10;;;;;;;;;;5033839;28;20627;-71
2021/05/07 01:17:38;;;;;;;3.40;1.20;;;;;;;;;;5021399;28;20234;-71
2021/05/07 01:20:42;;;;;;;1.60;0.90;;;;;;;;;;5033639;28;20228;-71
2021/05/07 01:23:46;;;;;;;2.50;1.10;;;;;;;;;;5033773;28;20172;-71
2021/05/07 01:26:50;;;;;;;1.23;0.80;;;;;;;;;;5021613;28;20180;-71
2021/05/07 01:29:54;;;;;;;1.10;1.00;;;;;;;;;;5033606;28;20540;-71
2021/05/07 01:32:59;;;;;;;3.70;0.93;;;;;;;;;;5032790;28;20518;-71
2021/05/07 01:36:04;;;;;;;1.03;0.93;;;;;;;;;;5033204;28;20196;-71
2021/05/07 01:39:09;;;;;;;0.97;0.90;;;;;;;;;;5032256;28;20209;-71
2021/05/07 01:42:13;;;;;;;1.20;0.70;;;;;;;;;;5033213;28;20221;-71
2021/05/07 01:45:19;;;;;;;1.93;0.90;;;;;;;;;;5033666;28;20181;-71
2021/05/07 01:48:23;;;;;;;1.90;1.10;;;;;;;;;;5033378;28;20180;-71
2021/05/07 01:51:27;;;;;;;2.60;1.10;;;;;;;;;;5033555;28;20221;-71
2021/05/07 01:54:32;;;;;;;1.37;1.10;;;;;;;;;;5033273;28;20651;-71
2021/05/07 01:57:36;;;;;;;1.20;1.10;;;;;;;;;;5033721;28;20196;-70
2021/05/07 02:00:41;;;;;;;2.27;1.20;;;;;;;;;;5033108;28;20583;-71
2021/05/07 02:03:46;;;;;;;2.53;1.20;;;;;;;;;;5033240;28;20181;-71
2021/05/07 02:06:54;;;;;;;1.23;1.10;;;;;;;;;;5032182;28;20567;-71
2021/05/07 02:09:59;;;;;;;5.70;1.43;;;;;;;;;;5032384;28;20640;-72
2021/05/07 02:13:06;;;;;;;2.90;1.40;;;;;;;;;;5033105;28;20199;-71
2021/05/07 02:16:12;;;;;;;1.93;1.50;;;;;;;;;;5032040;28;20200;-71
2021/05/07 02:19:18;;;;;;;2.60;1.40;;;;;;;;;;5032151;28;20684;-71
2021/05/07 02:22:22;;;;;;;1.70;1.30;;;;;;;;;;5032802;28;20228;-71
2021/05/07 02:25:27;;;;;;;2.30;1.50;;;;;;;;;;5032967;28;20202;-71
2021/05/07 02:28:32;;;;;;;2.00;1.70;;;;;;;;;;5033240;28;20173;-71
2021/05/07 02:31:36;;;;;;;2.20;1.50;;;;;;;;;;5031824;28;20595;-71
2021/05/07 02:34:40;;;;;;;3.00;1.57;;;;;;;;;;5032405;28;20181;-71
2021/05/07 02:37:45;;;;;;;1.60;1.50;;;;;;;;;;5032356;28;20181;-70
2021/05/07 02:40:49;;;;;;;1.90;1.37;;;;;;;;;;5032837;28;20694;-71
2021/05/07 02:43:54;;;;;;;2.47;1.90;;;;;;;;;;5032866;28;20192;-71
2021/05/07 02:47:04;;;;;;;2.20;1.50;;;;;;;;;;5032825;28;20189;-71
2021/05/07 02:50:11;;;;;;;1.83;1.63;;;;;;;;;;5033700;28;20170;-71
2021/05/07 02:53:16;;;;;;;1.63;1.50;;;;;;;;;;5035586;28;20200;-71
2021/05/07 02:56:20;;;;;;;2.50;1.50;;;;;;;;;;5032305;28;20529;-72
2021/05/07 02:59:27;;;;;;;1.60;1.40;;;;;;;;;;5026036;28;20679;-72
2021/05/07 03:02:31;;;;;;;2.23;1.20;;;;;;;;;;5032184;28;20220;-71
2021/05/07 03:05:35;;;;;;;3.23;1.50;;;;;;;;;;5032224;28;20528;-71
2021/05/07 03:08:39;;;;;;;1.30;1.20;;;;;;;;;;5022236;28;20193;-71
2021/05/07 03:11:44;;;;;;;2.77;1.23;;;;;;;;;;5013279;28;20221;-71
2021/05/07 03:14:48;;;;;;;1.40;1.20;;;;;;;;;;5011574;28;20540;-71
2021/05/07 03:17:55;;;;;;;1.50;1.40;;;;;;;;;;5013663;28;20637;-72
2021/05/07 03:20:59;;;;;;;1.40;1.30;;;;;;;;;;5031972;28;20212;-71
2021/05/07 03:24:07;;;;;;;1.50;1.27;;;;;;;;;;5031081;28;20177;-71
2021/05/07 03:27:11;;;;;;;1.47;1.30;;;;;;;;;;5015224;28;20209;-72
2021/05/07 03:30:16;;;;;;;3.93;1.37;;;;;;;;;;5022898;28;20189;-71
2021/05/07 03:33:20;;;;;;;2.20;1.40;;;;;;;;;;5026078;28;20201;-71
2021/05/07 03:36:25;;;;;;;2.03;1.23;;;;;;;;;;5019655;28;20176;-71
2021/05/07 03:39:30;;;;;;;1.47;1.03;;;;;;;;;;5031468;28;20212;-71
2021/05/07 03:42:34;;;;;;;1.30;1.20;;;;;;;;;;5021589;28;20236;-71
2021/05/07 03:45:38;;;;;;;1.77;1.43;;;;;;;;;;5028378;28;20200;-71
2021/05/07 03:48:43;;;;;;;2.93;1.47;;;;;;;;;;5027777;28;20508;-71
2021/05/07 03:51:47;;;;;;;3.00;1.60;;;;;;;;;;5011107;28;20216;-71
2021/05/07 03:54:51;;;;;;;2.60;1.33;;;;;;;;;;5011215;28;20181;-71
2021/05/07 03:57:55;;;;;;;1.60;1.40;;;;;;;;;;5010634;28;20185;-71
2021/05/07 04:01:00;;;;;;;1.40;1.30;;;;;;;;;;5010627;28;20260;-71
2021/05/07 04:04:07;;;;;;;1.93;1.47;;;;;;;;;;5011620;28;20181;-71
2021/05/07 04:07:12;;;;;;;2.50;1.50;;;;;;;;;;5010999;28;20185;-71
2021/05/07 04:10:19;;;;;;;1.43;1.33;;;;;;;;;;5011202;28;20182;-71
2021/05/07 04:16:34;;;;;;;2.10;1.43;;;;;;;;;;5010256;28;20185;-71
2021/05/07 04:19:38;;;;;;;2.10;1.50;;;;;;;;;;5009811;28;20217;-71
2021/05/07 04:22:43;;;;;;;1.80;1.57;;;;;;;;;;5011136;28;20194;-71
2021/05/07 04:25:49;;;;;;;2.20;1.60;;;;;;;;;;5010981;28;20177;-71
2021/05/07 04:28:54;;;;;;;2.67;1.67;;;;;;;;;;5010201;28;20177;-71
2021/05/07 04:31:59;;;;;;;1.77;1.67;;;;;;;;;;5010482;28;20217;-71
2021/05/07 04:35:04;;;;;;;1.90;1.67;;;;;;;;;;5010199;28;20182;-71
2021/05/07 04:38:08;;;;;;;2.47;2.03;;;;;;;;;;5010752;28;20190;-71
2021/05/07 04:41:12;;;;;;;2.03;1.77;;;;;;;;;;4998679;28;20217;-71
2021/05/07 04:44:17;;;;;;;2.03;1.83;;;;;;;;;;5010656;28;20189;-72
2021/05/07 04:47:21;;;;;;;5.20;2.43;;;;;;;;;;5010635;28;20182;-71
2021/05/07 04:50:26;;;;;;;3.90;3.50;;;;;;;;;;5010488;28;20178;-71
2021/05/07 04:53:30;;;;;;;3.63;2.03;;;;;;;;;;5010562;28;20193;-71
2021/05/07 04:56:35;;;;;;;1.40;1.30;;;;;;;;;;5010518;28;20525;-71
2021/05/07 04:59:39;;;;;;;1.27;1.03;;;;;;;;;;5015233;28;20216;-71
2021/05/07 05:02:43;;;;;;;3.10;1.30;;;;;;;;;;5022079;28;20218;-71
2021/05/07 05:05:47;;;;;;;1.00;0.90;;;;;;;;;;5029858;28;20208;-71
2021/05/07 05:08:52;;;;;;;1.10;1.00;;;;;;;;;;5029998;28;20192;-71
2021/05/07 05:11:56;;;;;;;1.30;0.73;;;;;;;;;;5017586;28;20703;-71
2021/05/07 05:15:00;;;;;;;0.67;0.67;;;;;;;;;;5029855;28;20181;-71
2021/05/07 05:18:04;;;;;;;1.90;0.77;;;;;;;;;;5029443;28;20189;-71
2021/05/07 05:21:09;;;;;;;3.93;2.93;;;;;;;;;;5017566;28;20216;-71
2021/05/07 05:24:14;;;;;;;8.90;8.00;;;;;;;;;;5029570;28;20181;-71
2021/05/07 05:27:18;;;;;;;2.27;2.07;;;;;;;;;;5028902;28;20177;-71
2021/05/07 05:30:23;;;;;;;1.10;0.80;;;;;;;;;;5029155;28;20635;-71
2021/05/07 05:33:28;;;;;;;1.03;0.90;;;;;;;;;;5030782;28;20181;-71
2021/05/07 05:36:45;;;;;;;0.70;0.70;;;;;;;;;;5032804;28;20204;-71
2021/05/07 05:39:49;;;;;;;1.10;1.00;;;;;;;;;;5032341;28;20216;-71
2021/05/07 05:42:54;;;;;;;0.67;0.67;;;;;;;;;;5013986;28;20204;-71
2021/05/07 05:45:58;;;;;;;0.70;0.70;;;;;;;;;;5027262;28;20192;-71
2021/05/07 05:49:03;;;;;;;0.63;0.63;;;;;;;;;;5032846;28;20176;-71
2021/05/07 05:52:07;;;;;;;1.37;0.80;;;;;;;;;;5033255;28;20220;-70
2021/05/07 05:55:11;;;;;;;1.27;0.70;;;;;;;;;;5033493;28;20628;-71
2021/05/07 05:58:16;;;;;;;1.43;0.60;;;;;;;;;;5032742;28;20517;-71
2021/05/07 06:01:20;;;;;;;1.70;0.90;;;;;;;;;;5032915;28;20735;-71
2021/05/07 06:04:24;;;;;;;0.60;0.60;;;;;;;;;;5033226;28;20628;-70
2021/05/07 06:07:28;;;;;;;0.67;0.67;;;;;;;;;;5033223;28;20519;-70
2021/05/07 06:10:32;;;;;;;1.90;0.80;;;;;;;;;;5032535;28;20174;-70
2021/05/07 06:13:37;;;;;;;0.63;0.60;;;;;;;;;;5033384;28;20638;-71
2021/05/07 06:16:43;;;;;;;12.70;7.83;;;;;;;;;;5032259;28;20195;-71
2021/05/07 06:19:47;;;;;;;2.50;2.30;;;;;;;;;;5032736;28;20204;-70
2021/05/07 06:22:51;;;;;;;3.13;2.17;;;;;;;;;;5033435;28;20611;-70
2021/05/07 06:25:56;;;;;;;2.60;0.90;;;;;;;;;;5035580;28;20181;-71
2021/05/07 06:29:00;;;;;;;1.00;0.90;;;;;;;;;;5026841;28;20213;-71
2021/05/07 06:32:04;;;;;;;1.10;1.00;;;;;;;;;;5024702;28;20228;-71
2021/05/07 06:35:09;;;;;;;2.53;1.60;;;;;;;;;;5032853;28;20180;-71
2021/05/07 06:38:13;;;;;;;0.70;0.70;;;;;;;;;;5033295;28;20185;-71
2021/05/07 06:41:18;;;;;;;0.87;0.87;;;;;;;;;;5031970;28;20212;-72
2021/05/07 06:44:24;;;;;;;0.67;0.67;;;;;;;;;;5032874;28;20512;-71
2021/05/07 06:47:28;;;;;;;1.10;1.00;;;;;;;;;;5013274;28;20644;-71
2021/05/07 06:50:32;;;;;;;0.93;0.80;;;;;;;;;;5012260;28;20178;-71
2021/05/07 06:53:37;;;;;;;4.13;3.07;;;;;;;;;;5020156;28;20205;-71
2021/05/07 06:56:42;;;;;;;1.70;1.20;;;;;;;;;;5032862;28;20655;-71
2021/05/07 06:59:47;;;;;;;6.27;4.20;;;;;;;;;;5031666;28;20699;-71
2021/05/07 07:02:52;;;;;;;2.43;2.17;;;;;;;;;;5032355;28;20204;-71
2021/05/07 07:05:56;;;;;;;1.67;1.53;;;;;;;;;;5032376;28;20209;-71
2021/05/07 07:09:00;;;;;;;1.47;1.10;;;;;;;;;;5032531;28;20181;-71
2021/05/07 07:12:05;;;;;;;1.00;0.90;;;;;;;;;;5031676;28;20212;-71
2021/05/07 07:15:11;;;;;;;2.97;2.60;;;;;;;;;;5032432;28;20181;-71
2021/05/07 07:18:22;;;;;;;1.40;1.30;;;;;;;;;;5032064;28;20671;-71
2021/05/07 07:21:27;;;;;;;1.10;1.00;;;;;;;;;;5032032;28;20228;-71
2021/05/07 07:24:31;;;;;;;2.00;1.10;;;;;;;;;;5032179;28;20185;-71
2021/05/07 07:27:36;;;;;;;1.27;1.10;;;;;;;;;;5032010;28;20517;-72
2021/05/07 07:30:40;;;;;;;2.27;1.53;;;;;;;;;;5020748;28;20561;-71
2021/05/07 07:33:44;;;;;;;1.73;1.20;;;;;;;;;;5012393;28;20194;-71
2021/05/07 07:36:49;;;;;;;1.87;1.03;;;;;;;;;;5011982;28;20185;-71
2021/05/07 07:39:53;;;;;;;1.50;1.13;;;;;;;;;;5012278;28;20210;-71
2021/05/07 07:42:58;;;;;;;1.20;1.10;;;;;;;;;;5022197;28;20185;-71
2021/05/07 07:46:02;;;;;;;2.13;1.30;;;;;;;;;;5022522;28;20182;-72
2021/05/07 07:49:06;;;;;;;1.63;1.40;;;;;;;;;;5012123;28;20185;-71
2021/05/07 07:52:10;;;;;;;1.30;1.20;;;;;;;;;;5011923;28;20213;-71
2021/05/07 07:55:14;;;;;;;2.10;1.67;;;;;;;;;;5011473;28;20181;-71
2021/05/07 07:58:19;;;;;;;1.43;1.33;;;;;;;;;;5011876;28;20177;-71
2021/05/07 08:01:23;;;;;;;2.37;1.40;;;;;;;;;;5011588;28;20225;-71
2021/05/07 08:04:27;;;;;;;2.40;1.30;;;;;;;;;;5010877;28;20644;-71
2021/05/07 08:07:32;;;;;;;2.47;2.27;;;;;;;;;;5021765;28;20197;-71
2021/05/07 08:10:36;;;;;;;1.97;1.50;;;;;;;;;;5011671;28;20534;-71
2021/05/07 08:13:41;;;;;;;1.53;1.43;;;;;;;;;;5011617;28;20178;-70
2021/05/07 08:16:45;;;;;;;1.50;1.40;;;;;;;;;;5011337;28;20189;-71
2021/05/07 08:19:50;;;;;;;1.70;1.60;;;;;;;;;;5011263;28;20205;-71
2021/05/07 08:22:56;;;;;;;2.17;1.70;;;;;;;;;;5011690;28;20648;-71
2021/05/07 08:26:00;;;;;;;1.67;1.40;;;;;;;;;;5011388;28;20182;-71
2021/05/07 08:29:05;;;;;;;2.70;1.60;;;;;;;;;;5011219;28;20185;-70
2021/05/07 08:32:09;;;;;;;2.13;1.93;;;;;;;;;;5011354;28;20209;-71
2021/05/07 08:35:13;;;;;;;2.07;1.27;;;;;;;;;;5011309;28;20197;-71
2021/05/07 08:38:17;;;;;;;1.80;1.60;;;;;;;;;;5011092;28;20194;-72
2021/05/07 08:41:22;;;;;;;2.17;1.97;;;;;;;;;;5010906;28;20229;-71
2021/05/07 08:44:27;;;;;;;3.10;2.17;;;;;;;;;;5010125;28;20193;-71
2021/05/07 08:47:32;;;;;;;3.47;2.40;;;;;;;;;;5010182;28;20186;-70
2021/05/07 08:50:36;;;;;;;2.73;2.13;;;;;;;;;;5009781;28;20182;-71
2021/05/07 08:53:41;;;;;;;3.73;3.13;;;;;;;;;;5010289;28;20181;-70
2021/05/07 08:56:46;;;;;;;4.27;3.07;;;;;;;;;;5010720;28;20208;-71
2021/05/07 08:59:50;;;;;;;2.97;2.63;;;;;;;;;;5010824;28;20182;-71
2021/05/07 09:03:04;;;;;;;2.03;1.83;;;;;;;;;;5016526;28;20656;-71
2021/05/07 09:06:19;;;;;;;1.90;1.70;;;;;;;;;;5010259;28;20177;-71
2021/05/07 09:09:27;;;;;;;1.83;1.50;;;;;;;;;;5009832;28;20193;-71
2021/05/07 09:12:37;;;;;;;2.80;1.90;;;;;;;;;;5009653;28;20217;-71
2021/05/07 09:15:44;;;;;;;5.23;3.13;;;;;;;;;;5010548;28;20186;-70
2021/05/07 09:18:50;;;;;;;3.03;2.50;;;;;;;;;;5009952;28;20190;-70
2021/05/07 09:21:55;;;;;;;3.37;3.07;;;;;;;;;;5010271;28;20241;-71
2021/05/07 09:25:18;;;;;;;2.10;1.90;;;;;;;;;;5020863;28;20197;-70
2021/05/07 09:28:22;;;;;;;4.20;2.77;;;;;;;;;;5010096;28;20530;-71
2021/05/07 09:31:26;;;;;;;2.63;2.43;;;;;;;;;;5009878;28;20213;-71
2021/05/07 09:34:37;;;;;;;3.27;2.30;;;;;;;;;;5009614;28;20189;-71
2021/05/07 09:37:41;;;;;;;6.27;5.67;;;;;;;;;;5020751;28;20177;-71
2021/05/07 09:40:45;;;;;;;7.23;6.63;;;;;;;;;;5010333;28;20233;-71
2021/05/07 09:43:49;;;;;;;3.33;3.00;;;;;;;;;;5009868;28;20666;-71
2021/05/07 09:46:54;;;;;;;3.27;2.97;;;;;;;;;;5017371;28;20204;-71
2021/05/07 09:50:03;;;;;;;3.30;3.00;;;;;;;;;;5010157;28;20181;-71
2021/05/07 09:53:17;;;;;;;3.40;3.10;;;;;;;;;;5019764;28;20205;-71
2021/05/07 09:56:27;;;;;;;4.27;3.87;;;;;;;;;;5029914;28;20802;-71
2021/05/07 09:59:31;;;;;;;4.30;3.80;;;;;;;;;;5011244;28;20205;-71
2021/05/07 10:02:36;;;;;;;3.80;3.40;;;;;;;;;;5013085;28;20216;-72
2021/05/07 10:05:40;;;;;;;4.23;3.70;;;;;;;;;;5012823;28;20545;-71
2021/05/07 10:08:45;;;;;;;4.43;3.70;;;;;;;;;;5013788;28;20197;-71
2021/05/07 10:11:51;;;;;;;4.60;3.97;;;;;;;;;;5013825;28;20212;-71
2021/05/07 10:14:57;;;;;;;4.60;4.10;;;;;;;;;;5012981;28;20198;-71
2021/05/07 10:18:02;;;;;;;6.23;4.67;;;;;;;;;;5013784;28;20587;-72
2021/05/07 10:21:14;;;;;;;5.43;4.40;;;;;;;;;;5013101;28;20237;-71
2021/05/07 10:24:19;;;;;;;5.07;4.57;;;;;;;;;;5017664;28;20201;-72
2021/05/07 10:27:24;;;;;;;4.77;4.30;;;;;;;;;;5013287;28;20186;-71
2021/05/07 10:30:31;;;;;;;4.50;4.10;;;;;;;;;;5012870;28;20177;-72
2021/05/07 10:33:37;;;;;;;4.63;3.90;;;;;;;;;;5012324;28;20216;-72
2021/05/07 10:36:43;;;;;;;6.57;4.93;;;;;;;;;;5013215;28;20193;-78
2021/05/07 10:39:53;;;;;;;4.03;3.63;;;;;;;;;;5013397;28;20197;-79
2021/05/07 10:42:58;;;;;;;4.97;4.17;;;;;;;;;;5012032;28;20170;-78
2021/05/07 10:46:03;;;;;;;7.40;3.23;;;;;;;;;;5014718;28;20584;-78
2021/05/07 10:49:08;;;;;;;3.20;2.90;;;;;;;;;;5032082;28;20200;-77
2021/05/07 10:52:14;;;;;;;3.43;3.10;;;;;;;;;;5032358;28;20687;-77
2021/05/07 10:55:18;;;;;;;2.97;2.57;;;;;;;;;;5032247;28;20521;-77
2021/05/07 10:58:34;;;;;;;3.10;2.57;;;;;;;;;;5020608;28;20718;-78
2021/05/07 11:01:39;;;;;;;3.33;2.50;;;;;;;;;;5020929;28;20232;-77
2021/05/07 11:04:45;;;;;;;3.13;2.70;;;;;;;;;;5032544;28;20196;-79
2021/05/07 11:07:52;;;;;;;2.53;2.33;;;;;;;;;;5031932;28;20181;-78
2021/05/07 11:10:57;;;;;;;5.13;2.20;;;;;;;;;;5031726;28;20220;-77
2021/05/07 11:14:01;;;;;;;3.30;2.20;;;;;;;;;;5032438;28;20556;-78
2021/05/07 11:17:16;;;;;;;2.10;1.90;;;;;;;;;;5032468;28;20184;-78
2021/05/07 11:20:39;;;;;;;3.70;2.30;;;;;;;;;;5033054;28;20180;-78
2021/05/07 11:23:43;;;;;;;3.40;2.10;;;;;;;;;;5031515;28;20181;-78
2021/05/07 11:26:47;;;;;;;2.53;2.33;;;;;;;;;;5032645;28;20188;-77
2021/05/07 11:30:04;;;;;;;2.43;2.03;;;;;;;;;;5008288;28;20180;-78
2021/05/07 11:33:08;;;;;;;2.50;2.13;;;;;;;;;;5031015;28;20181;-78
2021/05/07 11:36:13;;;;;;;3.00;2.40;;;;;;;;;;5031261;28;20639;-78
2021/05/07 11:39:22;;;;;;;3.23;2.93;;;;;;;;;;5031311;28;20193;-78
2021/05/07 11:42:44;;;;;;;2.73;2.53;;;;;;;;;;5019238;28;20232;-78
2021/05/07 11:45:48;;;;;;;3.53;3.23;;;;;;;;;;5019330;28;20181;-77
2021/05/07 11:48:52;;;;;;;3.33;3.03;;;;;;;;;;5031582;28;20188;-77
2021/05/07 11:51:57;;;;;;;3.27;2.90;;;;;;;;;;5030569;28;20220;-77
2021/05/07 11:55:02;;;;;;;3.33;3.03;;;;;;;;;;5030309;28;20176;-78
2021/05/07 11:58:08;;;;;;;4.97;2.60;;;;;;;;;;5030584;28;20185;-77
2021/05/07 12:01:13;;;;;;;6.30;2.40;;;;;;;;;;5032113;28;20228;-79
2021/05/07 12:04:17;;;;;;;3.40;2.30;;;;;;;;;;5031734;28;20185;-78
2021/05/07 12:07:33;;;;;;;2.63;2.03;;;;;;;;;;5030704;28;20177;-77
2021/05/07 12:10:39;;;;;;;3.23;2.80;;;;;;;;;;5031820;28;20181;-78
2021/05/07 12:13:45;;;;;;;3.03;2.50;;;;;;;;;;5031069;28;20193;-77
2021/05/07 12:16:59;;;;;;;2.87;2.40;;;;;;;;;;5031053;28;20201;-78
2021/05/07 12:20:04;;;;;;;3.13;2.83;;;;;;;;;;5031031;28;20185;-78
2021/05/07 12:23:08;;;;;;;6.70;3.03;;;;;;;;;;5030047;28;20656;-77
2021/05/07 12:26:14;;;;;;;3.27;2.70;;;;;;;;;;5030339;28;20631;-78
2021/05/07 12:29:18;;;;;;;3.30;3.00;;;;;;;;;;5030327;28;20533;-77
2021/05/07 12:32:23;;;;;;;2.30;2.00;;;;;;;;;;5030615;28;20208;-77
2021/05/07 12:35:35;;;;;;;3.30;2.40;;;;;;;;;;5030715;28;20181;-78
2021/05/07 12:38:40;;;;;;;2.83;2.50;;;;;;;;;;5030724;28;20185;-78
2021/05/07 12:41:44;;;;;;;3.37;2.43;;;;;;;;;;5029553;28;20229;-78
2021/05/07 12:44:49;;;;;;;4.10;2.77;;;;;;;;;;5029944;28;20169;-78
2021/05/07 12:47:53;;;;;;;5.47;2.80;;;;;;;;;;5007308;28;20185;-77
2021/05/07 12:51:04;;;;;;;3.73;2.93;;;;;;;;;;5018129;28;20216;-77
2021/05/07 12:54:10;;;;;;;4.30;2.97;;;;;;;;;;5029511;28;20628;-78
2021/05/07 12:57:14;;;;;;;3.33;2.70;;;;;;;;;;5030193;28;20640;-78
2021/05/07 13:00:18;;;;;;;3.27;2.80;;;;;;;;;;5030249;28;20189;-79
2021/05/07 13:03:26;;;;;;;2.90;2.40;;;;;;;;;;5018949;28;20193;-78
2021/05/07 13:06:30;;;;;;;2.80;2.50;;;;;;;;;;5023332;28;20197;-77
2021/05/07 13:09:34;;;;;;;2.00;1.80;;;;;;;;;;5014441;28;20178;-77
2021/05/07 13:12:39;;;;;;;5.00;2.37;;;;;;;;;;5014242;28;20561;-77
2021/05/07 13:15:43;;;;;;;4.90;2.77;;;;;;;;;;5013699;28;20181;-77
2021/05/07 13:18:47;;;;;;;2.70;2.50;;;;;;;;;;5014531;28;20189;-77
2021/05/07 13:21:53;;;;;;;6.77;3.37;;;;;;;;;;5014014;28;20568;-77
2021/05/07 13:24:58;;;;;;;3.17;2.60;;;;;;;;;;5013554;28;20186;-77
2021/05/07 13:28:02;;;;;;;4.73;2.10;;;;;;;;;;5014060;28;20185;-77
2021/05/07 13:31:06;;;;;;;1.87;1.67;;;;;;;;;;5013216;28;20217;-77
2021/05/07 13:34:11;;;;;;;3.80;1.80;;;;;;;;;;5014024;28;20173;-77
2021/05/07 13:37:16;;;;;;;5.63;1.83;;;;;;;;;;5014086;28;20182;-78
2021/05/07 13:40:21;;;;;;;1.83;1.60;;;;;;;;;;5013485;28;20186;-79
2021/05/07 13:43:26;;;;;;;2.43;2.00;;;;;;;;;;5013396;28;20206;-77
2021/05/07 13:46:30;;;;;;;4.33;2.97;;;;;;;;;;5013419;28;20177;-77
2021/05/07 13:49:35;;;;;;;12.37;2.63;;;;;;;;;;5007945;28;20204;-77
2021/05/07 13:52:39;;;;;;;8.70;5.10;;;;;;;;;;5032934;28;20216;-77
2021/05/07 13:55:43;;;;;;;3.47;2.40;;;;;;;;;;5033268;28;20180;-77
2021/05/07 13:58:47;;;;;;;5.93;2.40;;;;;;;;;;5032792;28;20192;-79
2021/05/07 14:01:52;;;;;;;4.33;2.63;;;;;;;;;;5033079;28;20233;-77
2021/05/07 14:04:56;;;;;;;3.57;2.87;;;;;;;;;;5033979;28;20177;-77
2021/05/07 14:08:00;;;;;;;5.90;2.10;;;;;;;;;;5033337;28;20181;-77
2021/05/07 14:11:04;;;;;;;10.50;6.87;;;;;;;;;;5032999;28;20699;-77
2021/05/07 14:14:12;;;;;;;13.73;2.33;;;;;;;;;;5033397;28;20512;-77
2021/05/07 14:17:16;;;;;;;3.93;1.90;;;;;;;;;;5032976;28;20185;-77
2021/05/07 14:20:21;;;;;;;3.30;1.77;;;;;;;;;;5033695;28;20196;-78
2021/05/07 14:23:25;;;;;;;4.20;1.80;;;;;;;;;;5032613;28;20221;-77
2021/05/07 14:26:29;;;;;;;3.67;1.50;;;;;;;;;;5033446;28;20185;-77
2021/05/07 14:29:33;;;;;;;7.07;1.83;;;;;;;;;;5034075;28;20513;-77
2021/05/07 14:32:37;;;;;;;7.13;1.70;;;;;;;;;;5033532;28;20220;-77
2021/05/07 14:35:42;;;;;;;3.97;1.90;;;;;;;;;;5032323;28;20176;-77
2021/05/07 14:38:46;;;;;;;3.43;2.00;;;;;;;;;;5032936;28;20197;-77
2021/05/07 14:41:50;;;;;;;3.37;2.50;;;;;;;;;;5033818;28;20707;-77
2021/05/07 14:44:54;;;;;;;5.00;1.60;;;;;;;;;;5035095;28;20177;-77
2021/05/07 14:47:59;;;;;;;9.80;2.83;;;;;;;;;;5039091;28;20524;-77
2021/05/07 14:51:04;;;;;;;5.33;1.87;;;;;;;;;;5037993;28;20220;-77
2021/05/07 14:54:09;;;;;;;2.33;1.97;;;;;;;;;;5038540;28;20192;-77
2021/05/07 14:57:13;;;;;;;2.03;1.70;;;;;;;;;;5026174;28;20181;-77
2021/05/07 15:00:18;;;;;;;1.97;1.50;;;;;;;;;;5037116;28;20185;-77
2021/05/07 15:03:23;;;;;;;3.57;2.47;;;;;;;;;;5035519;28;20549;-77
2021/05/07 15:06:29;;;;;;;8.50;5.67;;;;;;;;;;5035126;28;20209;-78
2021/05/07 15:09:34;;;;;;;14.03;9.47;;;;;;;;;;5035733;28;20620;-77
2021/05/07 15:12:38;;;;;;;5.40;4.30;;;;;;;;;;5023686;28;20212;-77
2021/05/07 15:15:43;;;;;;;14.93;10.90;;;;;;;;;;5036081;28;20196;-77
2021/05/07 15:18:48;;;;;;;5.50;4.73;;;;;;;;;;5036044;28;20184;-77
2021/05/07 15:21:52;;;;;;;6.40;4.53;;;;;;;;;;5035870;28;20217;-77
2021/05/07 15:24:56;;;;;;;4.47;3.20;;;;;;;;;;5035218;28;20185;-77
2021/05/07 15:28:01;;;;;;;4.67;2.23;;;;;;;;;;5035713;28;20181;-77
2021/05/07 15:31:05;;;;;;;6.10;2.40;;;;;;;;;;5035925;28;20287;-77
2021/05/07 15:34:09;;;;;;;3.73;2.50;;;;;;;;;;5035815;28;20176;-77
2021/05/07 15:37:13;;;;;;;5.13;2.77;;;;;;;;;;5035145;28;20177;-77
2021/05/07 15:40:19;;;;;;;4.40;2.27;;;;;;;;;;5034881;28;20173;-77
2021/05/07 15:43:23;;;;;;;2.90;2.20;;;;;;;;;;5034818;28;20204;-77
2021/05/07 15:46:27;;;;;;;2.93;2.20;;;;;;;;;;5034835;28;20184;-77
2021/05/07 15:49:34;;;;;;;5.70;2.47;;;;;;;;;;5034760;28;20181;-77
2021/05/07 15:52:41;;;;;;;12.80;2.93;;;;;;;;;;5035486;28;20204;-77
2021/05/07 15:55:45;;;;;;;5.73;2.57;;;;;;;;;;5033451;28;20193;-81
2021/05/07 15:58:50;;;;;;;2.47;2.20;;;;;;;;;;5033646;28;20185;-80
2021/05/07 16:01:54;;;;;;;4.03;2.67;;;;;;;;;;5021422;28;20216;-80
2021/05/07 16:04:58;;;;;;;5.30;2.70;;;;;;;;;;5032377;28;20204;-78
2021/05/07 16:08:03;;;;;;;5.23;2.37;;;;;;;;;;5033118;28;20173;-80
2021/05/07 16:11:07;;;;;;;3.17;2.93;;;;;;;;;;5023053;28;20215;-79
2021/05/07 16:14:11;;;;;;;4.37;2.70;;;;;;;;;;5022831;28;20177;-78
2021/05/07 16:17:16;;;;;;;5.23;3.20;;;;;;;;;;5034008;28;20197;-79
2021/05/07 16:20:21;;;;;;;3.90;2.80;;;;;;;;;;5034002;28;20176;-78
2021/05/07 16:23:25;;;;;;;3.97;3.23;;;;;;;;;;5002259;28;20209;-79
2021/05/07 16:26:29;;;;;;;4.20;2.93;;;;;;;;;;5014604;28;20181;-80
2021/05/07 16:29:34;;;;;;;3.13;2.60;;;;;;;;;;5014229;28;20178;-80
2021/05/07 16:32:38;;;;;;;4.33;3.20;;;;;;;;;;5014462;28;20221;-79
2021/05/07 16:35:44;;;;;;;4.07;3.47;;;;;;;;;;5015573;28;20204;-79
2021/05/07 16:38:49;;;;;;;6.00;2.77;;;;;;;;;;5033816;28;20181;-79
2021/05/07 16:41:53;;;;;;;3.40;2.50;;;;;;;;;;5032999;28;20220;-80
2021/05/07 16:44:57;;;;;;;3.53;2.33;;;;;;;;;;5034892;28;20177;-79
2021/05/07 16:48:01;;;;;;;4.50;2.40;;;;;;;;;;5032833;28;20185;-79
2021/05/07 16:51:07;;;;;;;1.90;1.63;;;;;;;;;;5033541;28;20212;-79
2021/05/07 16:54:11;;;;;;;5.73;2.77;;;;;;;;;;5033619;28;20527;-79
2021/05/07 16:57:15;;;;;;;3.90;2.30;;;;;;;;;;5031960;28;20173;-76
2021/05/07 17:00:20;;;;;;;5.67;2.30;;;;;;;;;;5029638;28;20208;-78
2021/05/07 17:03:24;;;;;;;3.20;2.20;;;;;;;;;;5031757;28;20216;-79
2021/05/07 17:06:29;;;;;;;5.60;2.10;;;;;;;;;;5029930;28;20185;-79
2021/05/07 17:09:33;;;;;;;3.30;2.00;;;;;;;;;;5030269;28;20181;-78
2021/05/07 17:12:37;;;;;;;3.37;1.70;;;;;;;;;;5031756;28;20212;-79
2021/05/07 17:15:42;;;;;;;2.50;1.57;;;;;;;;;;5031021;28;20177;-79
2021/05/07 17:18:46;;;;;;;4.60;1.90;;;;;;;;;;5019612;28;20581;-78
2021/05/07 17:21:50;;;;;;;4.10;1.60;;;;;;;;;;5031678;28;20217;-79
2021/05/07 17:24:55;;;;;;;4.10;1.50;;;;;;;;;;5019758;28;20177;-79
2021/05/07 17:27:59;;;;;;;3.93;1.87;;;;;;;;;;5031229;28;20188;-79
2021/05/07 17:31:04;;;;;;;2.50;1.73;;;;;;;;;;5017184;28;20221;-79
2021/05/07 17:34:08;;;;;;;2.23;1.80;;;;;;;;;;5017781;28;20172;-78
2021/05/07 17:37:12;;;;;;;2.37;1.50;;;;;;;;;;5030013;28;20192;-78
2021/05/07 17:40:18;;;;;;;2.63;1.60;;;;;;;;;;5028753;28;20200;-78
2021/05/07 17:43:22;;;;;;;2.83;1.57;;;;;;;;;;5029365;28;20228;-79
2021/05/07 17:46:27;;;;;;;3.47;2.60;;;;;;;;;;5029590;28;20573;-79
2021/05/07 17:49:31;;;;;;;3.73;2.00;;;;;;;;;;5029594;28;20185;-78
2021/05/07 17:52:35;;;;;;;2.47;1.97;;;;;;;;;;5028812;28;20647;-79
2021/05/07 17:55:41;;;;;;;2.20;1.70;;;;;;;;;;5028553;28;20181;-78
2021/05/07 17:58:46;;;;;;;2.03;1.40;;;;;;;;;;5028764;28;20197;-78
2021/05/07 18:01:50;;;;;;;3.17;1.53;;;;;;;;;;5030397;28;20228;-79
2021/05/07 18:04:54;;;;;;;2.63;2.20;;;;;;;;;;5031200;28;20587;-78
2021/05/07 18:07:59;;;;;;;2.70;2.00;;;;;;;;;;5030959;28;20172;-77
2021/05/07 18:11:03;;;;;;;2.47;1.60;;;;;;;;;;5031144;28;20216;-78
2021/05/07 18:14:07;;;;;;;2.80;1.77;;;;;;;;;;5030680;28;20189;-78
2021/05/07 18:17:12;;;;;;;5.77;1.83;;;;;;;;;;5019114;28;20177;-78
2021/05/07 18:20:17;;;;;;;10.93;2.10;;;;;;;;;;5018968;28;20189;-78
2021/05/07 18:23:22;;;;;;;6.23;3.73;;;;;;;;;;5034974;28;20208;-78
2021/05/07 18:26:26;;;;;;;5.80;3.40;;;;;;;;;;5035165;28;20513;-77
2021/05/07 18:29:30;;;;;;;8.27;2.90;;;;;;;;;;5034021;28;20181;-78
2021/05/07 18:32:34;;;;;;;5.40;2.63;;;;;;;;;;5035508;28;20208;-78